sensor_id;sensor_type;location;lat;lon;timestamp;temperature;humidity
34989;DHT22;21192;40.182;44.516;2023-07-20T00:01:26;23.20;64.90
34989;DHT22;21192;40.182;44.516;2023-07-20T00:03:51;23.20;64.90
34989;DHT22;21192;40.182;44.516;2023-07-20T00:06:21;23.20;64.90
34989;DHT22;21192;40.182;44.516;2023-07-20T00:08:47;23.20;64.90
34989;DHT22;21192;40.182;44.516;2023-07-20T00:11:14;23.20;64.90
34989;DHT22;21192;40.182;44.516;2023-07-20T00:13:40;23.20;64.80
34989;DHT22;21192;40.182;44.516;2023-07-20T00:16:06;23.20;64.50
34989;DHT22;21192;40.182;44.516;2023-07-20T00:18:32;23.20;64.40
34989;DHT22;21192;40.182;44.516;2023-07-20T00:20:58;23.10;64.20
34989;DHT22;21192;40.182;44.516;2023-07-20T00:23:27;23.10;64.20
34989;DHT22;21192;40.182;44.516;2023-07-20T00:25:53;23.10;64.30
34989;DHT22;21192;40.182;44.516;2023-07-20T00:28:20;23.10;64.30
34989;DHT22;21192;40.182;44.516;2023-07-20T00:30:45;23.00;64.30
34989;DHT22;21192;40.182;44.516;2023-07-20T00:33:12;23.00;64.40
34989;DHT22;21192;40.182;44.516;2023-07-20T00:35:41;23.00;64.40
34989;DHT22;21192;40.182;44.516;2023-07-20T00:38:06;23.00;64.50
34989;DHT22;21192;40.182;44.516;2023-07-20T00:40:39;23.00;64.50
34989;DHT22;21192;40.182;44.516;2023-07-20T00:43:06;23.10;65.50
34989;DHT22;21192;40.182;44.516;2023-07-20T00:45:33;23.00;64.80
34989;DHT22;21192;40.182;44.516;2023-07-20T00:47:59;23.00;64.90
34989;DHT22;21192;40.182;44.516;2023-07-20T00:50:27;23.00;64.90
34989;DHT22;21192;40.182;44.516;2023-07-20T00:52:55;23.00;65.00
34989;DHT22;21192;40.182;44.516;2023-07-20T00:55:23;23.00;65.20
34989;DHT22;21192;40.182;44.516;2023-07-20T00:57:49;23.00;65.50
34989;DHT22;21192;40.182;44.516;2023-07-20T01:00:16;23.00;66.50
34989;DHT22;21192;40.182;44.516;2023-07-20T01:02:42;23.10;66.00
34989;DHT22;21192;40.182;44.516;2023-07-20T01:05:08;23.10;66.50
34989;DHT22;21192;40.182;44.516;2023-07-20T01:07:38;23.10;65.40
34989;DHT22;21192;40.182;44.516;2023-07-20T01:10:29;23.10;65.20
34989;DHT22;21192;40.182;44.516;2023-07-20T01:12:57;23.10;65.00
34989;DHT22;21192;40.182;44.516;2023-07-20T01:15:24;23.10;64.90
34989;DHT22;21192;40.182;44.516;2023-07-20T01:17:50;23.10;64.80
34989;DHT22;21192;40.182;44.516;2023-07-20T01:20:19;23.10;64.70
34989;DHT22;21192;40.182;44.516;2023-07-20T01:33:42;23.00;64.20
34989;DHT22;21192;40.182;44.516;2023-07-20T01:36:08;23.00;64.10
34989;DHT22;21192;40.182;44.516;2023-07-20T01:38:36;23.00;64.10
34989;DHT22;21192;40.182;44.516;2023-07-20T01:41:03;23.00;64.20
34989;DHT22;21192;40.182;44.516;2023-07-20T01:43:29;22.90;64.30
34989;DHT22;21192;40.182;44.516;2023-07-20T01:45:55;22.90;64.40
34989;DHT22;21192;40.182;44.516;2023-07-20T01:48:21;23.00;64.70
34989;DHT22;21192;40.182;44.516;2023-07-20T01:50:46;23.00;64.80
34989;DHT22;21192;40.182;44.516;2023-07-20T01:53:13;22.90;64.60
34989;DHT22;21192;40.182;44.516;2023-07-20T01:55:39;23.00;64.70
34989;DHT22;21192;40.182;44.516;2023-07-20T01:58:05;23.00;64.60
34989;DHT22;21192;40.182;44.516;2023-07-20T02:00:32;22.90;64.80
34989;DHT22;21192;40.182;44.516;2023-07-20T02:02:58;22.90;65.20
34989;DHT22;21192;40.182;44.516;2023-07-20T02:05:23;22.90;65.70
34989;DHT22;21192;40.182;44.516;2023-07-20T02:07:50;22.80;66.20
34989;DHT22;21192;40.182;44.516;2023-07-20T02:10:16;22.90;66.50
34989;DHT22;21192;40.182;44.516;2023-07-20T02:12:41;22.90;66.80
34989;DHT22;21192;40.182;44.516;2023-07-20T02:15:08;22.80;67.70
34989;DHT22;21192;40.182;44.516;2023-07-20T02:17:34;22.90;68.30
34989;DHT22;21192;40.182;44.516;2023-07-20T02:19:59;22.90;68.50
34989;DHT22;21192;40.182;44.516;2023-07-20T02:22:25;22.90;68.50
34989;DHT22;21192;40.182;44.516;2023-07-20T02:24:51;23.00;68.50
34989;DHT22;21192;40.182;44.516;2023-07-20T02:27:17;23.10;68.10
34989;DHT22;21192;40.182;44.516;2023-07-20T02:29:43;23.10;67.70
34989;DHT22;21192;40.182;44.516;2023-07-20T02:32:09;23.10;68.30
34989;DHT22;21192;40.182;44.516;2023-07-20T02:34:37;23.20;67.40
34989;DHT22;21192;40.182;44.516;2023-07-20T02:37:04;23.30;67.30
34989;DHT22;21192;40.182;44.516;2023-07-20T02:39:30;23.30;67.00
34989;DHT22;21192;40.182;44.516;2023-07-20T02:41:56;23.40;66.80
34989;DHT22;21192;40.182;44.516;2023-07-20T02:44:22;23.50;66.60
34989;DHT22;21192;40.182;44.516;2023-07-20T02:46:48;24.00;66.00
34989;DHT22;21192;40.182;44.516;2023-07-20T02:49:17;25.00;64.60
34989;DHT22;21192;40.182;44.516;2023-07-20T02:51:43;26.00;62.90
34989;DHT22;21192;40.182;44.516;2023-07-20T02:54:09;26.20;61.30
34989;DHT22;21192;40.182;44.516;2023-07-20T02:56:35;26.50;59.80
34989;DHT22;21192;40.182;44.516;2023-07-20T02:59:01;26.50;59.20
34989;DHT22;21192;40.182;44.516;2023-07-20T03:01:27;26.40;58.90
34989;DHT22;21192;40.182;44.516;2023-07-20T03:03:55;27.30;58.40
34989;DHT22;21192;40.182;44.516;2023-07-20T03:06:21;28.60;57.30
34989;DHT22;21192;40.182;44.516;2023-07-20T03:08:47;29.80;55.50
34989;DHT22;21192;40.182;44.516;2023-07-20T03:11:17;30.90;53.70
34989;DHT22;21192;40.182;44.516;2023-07-20T03:13:44;32.10;51.50
34989;DHT22;21192;40.182;44.516;2023-07-20T03:16:11;33.00;49.80
34989;DHT22;21192;40.182;44.516;2023-07-20T03:18:40;34.00;48.30
34989;DHT22;21192;40.182;44.516;2023-07-20T03:21:07;34.70;46.90
34989;DHT22;21192;40.182;44.516;2023-07-20T03:23:34;35.50;45.70
34989;DHT22;21192;40.182;44.516;2023-07-20T03:26:00;36.20;44.50
34989;DHT22;21192;40.182;44.516;2023-07-20T03:28:26;36.90;43.40
34989;DHT22;21192;40.182;44.516;2023-07-20T03:30:58;37.50;42.50
34989;DHT22;21192;40.182;44.516;2023-07-20T03:33:28;36.90;41.80
34989;DHT22;21192;40.182;44.516;2023-07-20T03:35:55;36.70;42.00
34989;DHT22;21192;40.182;44.516;2023-07-20T03:38:22;37.50;41.60
34989;DHT22;21192;40.182;44.516;2023-07-20T03:40:53;38.30;40.70
34989;DHT22;21192;40.182;44.516;2023-07-20T03:43:19;38.60;39.40
34989;DHT22;21192;40.182;44.516;2023-07-20T03:45:45;38.20;39.50
34989;DHT22;21192;40.182;44.516;2023-07-20T03:48:17;38.70;39.10
34989;DHT22;21192;40.182;44.516;2023-07-20T03:50:47;38.10;39.30
34989;DHT22;21192;40.182;44.516;2023-07-20T03:53:13;37.50;40.00
34989;DHT22;21192;40.182;44.516;2023-07-20T03:55:50;38.30;39.80
34989;DHT22;21192;40.182;44.516;2023-07-20T03:58:16;39.40;38.90
34989;DHT22;21192;40.182;44.516;2023-07-20T04:00:47;40.50;38.00
34989;DHT22;21192;40.182;44.516;2023-07-20T04:03:13;41.20;37.00
34989;DHT22;21192;40.182;44.516;2023-07-20T04:05:39;42.10;36.00
34989;DHT22;21192;40.182;44.516;2023-07-20T04:08:05;41.30;35.50
34989;DHT22;21192;40.182;44.516;2023-07-20T04:10:31;41.70;35.50
34989;DHT22;21192;40.182;44.516;2023-07-20T04:12:57;42.40;35.00
34989;DHT22;21192;40.182;44.516;2023-07-20T04:15:23;42.50;34.50
34989;DHT22;21192;40.182;44.516;2023-07-20T04:17:49;43.20;34.20
34989;DHT22;21192;40.182;44.516;2023-07-20T04:20:15;43.30;33.80
34989;DHT22;21192;40.182;44.516;2023-07-20T04:22:41;43.20;33.80
34989;DHT22;21192;40.182;44.516;2023-07-20T04:25:07;43.40;33.60
34989;DHT22;21192;40.182;44.516;2023-07-20T04:27:33;44.60;33.40
34989;DHT22;21192;40.182;44.516;2023-07-20T04:29:59;45.30;32.30
34989;DHT22;21192;40.182;44.516;2023-07-20T04:32:27;44.10;32.10
34989;DHT22;21192;40.182;44.516;2023-07-20T04:34:53;43.60;32.90
34989;DHT22;21192;40.182;44.516;2023-07-20T04:37:19;44.20;32.70
34989;DHT22;21192;40.182;44.516;2023-07-20T04:39:45;44.90;32.40
34989;DHT22;21192;40.182;44.516;2023-07-20T04:42:11;45.20;32.00
34989;DHT22;21192;40.182;44.516;2023-07-20T04:44:38;45.90;31.30
34989;DHT22;21192;40.182;44.516;2023-07-20T04:47:04;46.30;30.80
34989;DHT22;21192;40.182;44.516;2023-07-20T04:49:30;46.80;30.50
34989;DHT22;21192;40.182;44.516;2023-07-20T04:51:55;47.00;30.10
34989;DHT22;21192;40.182;44.516;2023-07-20T04:54:21;47.40;29.80
34989;DHT22;21192;40.182;44.516;2023-07-20T04:56:47;47.70;29.60
34989;DHT22;21192;40.182;44.516;2023-07-20T04:59:13;47.70;29.40
34989;DHT22;21192;40.182;44.516;2023-07-20T05:01:39;47.40;29.40
34989;DHT22;21192;40.182;44.516;2023-07-20T05:04:05;46.30;29.70
34989;DHT22;21192;40.182;44.516;2023-07-20T05:06:31;45.30;30.30
34989;DHT22;21192;40.182;44.516;2023-07-20T05:08:56;43.80;31.00
34989;DHT22;21192;40.182;44.516;2023-07-20T05:11:23;42.50;31.90
34989;DHT22;21192;40.182;44.516;2023-07-20T05:13:48;41.20;33.10
34989;DHT22;21192;40.182;44.516;2023-07-20T05:16:14;40.00;34.10
34989;DHT22;21192;40.182;44.516;2023-07-20T05:18:40;39.10;35.00
34989;DHT22;21192;40.182;44.516;2023-07-20T05:21:06;38.30;35.90
34989;DHT22;21192;40.182;44.516;2023-07-20T05:23:33;37.40;37.00
34989;DHT22;21192;40.182;44.516;2023-07-20T05:25:59;36.80;37.60
34989;DHT22;21192;40.182;44.516;2023-07-20T05:28:28;36.20;38.40
34989;DHT22;21192;40.182;44.516;2023-07-20T05:30:53;35.80;38.90
34989;DHT22;21192;40.182;44.516;2023-07-20T05:33:22;35.10;39.50
34989;DHT22;21192;40.182;44.516;2023-07-20T05:35:48;34.60;40.10
34989;DHT22;21192;40.182;44.516;2023-07-20T05:38:14;34.10;40.50
34989;DHT22;21192;40.182;44.516;2023-07-20T05:40:41;33.80;41.10
34989;DHT22;21192;40.182;44.516;2023-07-20T05:43:08;33.60;43.10
34989;DHT22;21192;40.182;44.516;2023-07-20T05:45:34;33.40;42.40
34989;DHT22;21192;40.182;44.516;2023-07-20T05:48:00;33.10;42.50
34989;DHT22;21192;40.182;44.516;2023-07-20T05:50:26;32.90;43.30
34989;DHT22;21192;40.182;44.516;2023-07-20T05:52:55;32.70;44.20
34989;DHT22;21192;40.182;44.516;2023-07-20T05:55:21;32.60;43.50
34989;DHT22;21192;40.182;44.516;2023-07-20T05:57:47;32.30;43.60
34989;DHT22;21192;40.182;44.516;2023-07-20T06:00:14;31.90;44.00
34989;DHT22;21192;40.182;44.516;2023-07-20T06:02:40;31.70;44.30
34989;DHT22;21192;40.182;44.516;2023-07-20T06:05:06;31.40;44.60
34989;DHT22;21192;40.182;44.516;2023-07-20T06:07:36;31.40;44.80
34989;DHT22;21192;40.182;44.516;2023-07-20T06:10:03;31.30;45.10
34989;DHT22;21192;40.182;44.516;2023-07-20T06:12:29;31.20;45.40
34989;DHT22;21192;40.182;44.516;2023-07-20T06:14:54;31.30;45.70
34989;DHT22;21192;40.182;44.516;2023-07-20T06:17:20;31.40;45.50
34989;DHT22;21192;40.182;44.516;2023-07-20T06:19:46;31.50;45.30
34989;DHT22;21192;40.182;44.516;2023-07-20T06:22:12;31.30;45.30
34989;DHT22;21192;40.182;44.516;2023-07-20T06:24:38;31.10;45.60
34989;DHT22;21192;40.182;44.516;2023-07-20T06:27:04;31.20;45.70
34989;DHT22;21192;40.182;44.516;2023-07-20T06:29:31;31.10;45.80
34989;DHT22;21192;40.182;44.516;2023-07-20T06:31:57;31.00;45.90
34989;DHT22;21192;40.182;44.516;2023-07-20T06:34:23;31.00;46.00
34989;DHT22;21192;40.182;44.516;2023-07-20T06:36:49;31.00;46.00
34989;DHT22;21192;40.182;44.516;2023-07-20T06:39:15;31.00;46.20
34989;DHT22;21192;40.182;44.516;2023-07-20T06:41:41;31.00;46.20
34989;DHT22;21192;40.182;44.516;2023-07-20T06:44:07;31.00;46.30
34989;DHT22;21192;40.182;44.516;2023-07-20T06:46:33;31.00;46.30
34989;DHT22;21192;40.182;44.516;2023-07-20T06:48:59;31.10;46.20
34989;DHT22;21192;40.182;44.516;2023-07-20T06:51:25;31.10;46.10
34989;DHT22;21192;40.182;44.516;2023-07-20T06:53:51;31.20;46.10
34989;DHT22;21192;40.182;44.516;2023-07-20T06:56:16;31.30;46.00
34989;DHT22;21192;40.182;44.516;2023-07-20T06:58:42;31.40;46.10
34989;DHT22;21192;40.182;44.516;2023-07-20T07:01:08;31.40;46.00
34989;DHT22;21192;40.182;44.516;2023-07-20T07:03:34;31.40;46.00
34989;DHT22;21192;40.182;44.516;2023-07-20T07:06:00;31.50;46.10
34989;DHT22;21192;40.182;44.516;2023-07-20T07:08:26;31.30;46.40
34989;DHT22;21192;40.182;44.516;2023-07-20T07:10:52;31.20;46.60
34989;DHT22;21192;40.182;44.516;2023-07-20T07:13:19;31.30;46.70
34989;DHT22;21192;40.182;44.516;2023-07-20T07:15:45;31.30;46.60
34989;DHT22;21192;40.182;44.516;2023-07-20T07:18:11;31.50;47.20
34989;DHT22;21192;40.182;44.516;2023-07-20T07:20:37;31.40;46.60
34989;DHT22;21192;40.182;44.516;2023-07-20T07:23:03;31.40;46.80
34989;DHT22;21192;40.182;44.516;2023-07-20T07:25:29;31.30;46.90
34989;DHT22;21192;40.182;44.516;2023-07-20T07:27:56;31.30;47.10
34989;DHT22;21192;40.182;44.516;2023-07-20T07:30:22;31.40;47.00
34989;DHT22;21192;40.182;44.516;2023-07-20T07:32:48;31.50;47.00
34989;DHT22;21192;40.182;44.516;2023-07-20T07:35:14;31.50;46.90
34989;DHT22;21192;40.182;44.516;2023-07-20T07:37:40;31.50;47.00
34989;DHT22;21192;40.182;44.516;2023-07-20T07:40:07;31.40;46.80
34989;DHT22;21192;40.182;44.516;2023-07-20T07:42:33;31.50;46.90
34989;DHT22;21192;40.182;44.516;2023-07-20T07:44:59;31.50;46.70
34989;DHT22;21192;40.182;44.516;2023-07-20T07:47:25;31.50;46.70
34989;DHT22;21192;40.182;44.516;2023-07-20T07:49:51;31.50;46.70
34989;DHT22;21192;40.182;44.516;2023-07-20T07:52:17;31.50;46.60
34989;DHT22;21192;40.182;44.516;2023-07-20T07:54:42;31.60;46.70
34989;DHT22;21192;40.182;44.516;2023-07-20T07:57:08;31.60;46.90
34989;DHT22;21192;40.182;44.516;2023-07-20T07:59:34;31.60;47.00
34989;DHT22;21192;40.182;44.516;2023-07-20T08:02:06;31.60;47.30
34989;DHT22;21192;40.182;44.516;2023-07-20T08:04:32;31.60;47.40
34989;DHT22;21192;40.182;44.516;2023-07-20T08:06:59;31.70;47.30
34989;DHT22;21192;40.182;44.516;2023-07-20T08:09:25;31.50;47.20
34989;DHT22;21192;40.182;44.516;2023-07-20T08:11:51;31.50;47.40
34989;DHT22;21192;40.182;44.516;2023-07-20T08:14:16;31.50;47.40
34989;DHT22;21192;40.182;44.516;2023-07-20T08:16:42;31.50;47.50
34989;DHT22;21192;40.182;44.516;2023-07-20T08:19:09;31.50;47.60
34989;DHT22;21192;40.182;44.516;2023-07-20T08:21:34;31.50;47.70
34989;DHT22;21192;40.182;44.516;2023-07-20T08:24:00;31.50;47.60
34989;DHT22;21192;40.182;44.516;2023-07-20T08:26:26;31.50;47.50
34989;DHT22;21192;40.182;44.516;2023-07-20T08:28:52;31.40;47.60
34989;DHT22;21192;40.182;44.516;2023-07-20T08:31:18;31.20;47.80
34989;DHT22;21192;40.182;44.516;2023-07-20T08:33:44;31.20;48.00
34989;DHT22;21192;40.182;44.516;2023-07-20T08:36:10;31.20;48.00
34989;DHT22;21192;40.182;44.516;2023-07-20T08:38:35;31.20;48.00
34989;DHT22;21192;40.182;44.516;2023-07-20T08:41:01;31.20;48.00
34989;DHT22;21192;40.182;44.516;2023-07-20T08:43:28;31.30;48.20
34989;DHT22;21192;40.182;44.516;2023-07-20T08:45:57;31.20;48.10
34989;DHT22;21192;40.182;44.516;2023-07-20T08:48:24;31.20;48.30
34989;DHT22;21192;40.182;44.516;2023-07-20T08:50:52;31.10;48.60
34989;DHT22;21192;40.182;44.516;2023-07-20T08:53:20;31.00;48.80
34989;DHT22;21192;40.182;44.516;2023-07-20T08:55:46;31.00;49.00
34989;DHT22;21192;40.182;44.516;2023-07-20T08:58:14;31.00;49.20
34989;DHT22;21192;40.182;44.516;2023-07-20T09:00:41;31.00;49.20
34989;DHT22;21192;40.182;44.516;2023-07-20T09:03:07;30.90;49.10
34989;DHT22;21192;40.182;44.516;2023-07-20T09:05:34;31.00;49.20
34989;DHT22;21192;40.182;44.516;2023-07-20T09:08:01;30.90;49.20
34989;DHT22;21192;40.182;44.516;2023-07-20T09:10:29;30.90;49.20
34989;DHT22;21192;40.182;44.516;2023-07-20T09:12:55;31.00;49.40
34989;DHT22;21192;40.182;44.516;2023-07-20T09:15:22;31.10;49.50
34989;DHT22;21192;40.182;44.516;2023-07-20T09:17:49;31.00;49.40
34989;DHT22;21192;40.182;44.516;2023-07-20T09:20:19;31.10;49.50
34989;DHT22;21192;40.182;44.516;2023-07-20T09:22:45;31.00;49.40
34989;DHT22;21192;40.182;44.516;2023-07-20T09:25:16;31.00;49.60
34989;DHT22;21192;40.182;44.516;2023-07-20T09:27:46;31.00;49.70
34989;DHT22;21192;40.182;44.516;2023-07-20T09:30:14;31.00;49.80
34989;DHT22;21192;40.182;44.516;2023-07-20T09:32:45;31.10;49.70
34989;DHT22;21192;40.182;44.516;2023-07-20T09:35:15;31.10;49.70
34989;DHT22;21192;40.182;44.516;2023-07-20T09:37:52;31.10;49.70
34989;DHT22;21192;40.182;44.516;2023-07-20T09:40:18;30.90;49.90
34989;DHT22;21192;40.182;44.516;2023-07-20T09:42:45;30.90;50.20
34989;DHT22;21192;40.182;44.516;2023-07-20T09:45:11;30.90;50.30
34989;DHT22;21192;40.182;44.516;2023-07-20T09:47:38;30.90;50.40
34989;DHT22;21192;40.182;44.516;2023-07-20T09:50:05;30.90;50.50
34989;DHT22;21192;40.182;44.516;2023-07-20T09:52:37;30.90;50.70
34989;DHT22;21192;40.182;44.516;2023-07-20T09:55:06;31.00;50.80
34989;DHT22;21192;40.182;44.516;2023-07-20T09:57:33;31.00;50.70
34989;DHT22;21192;40.182;44.516;2023-07-20T09:59:59;31.10;50.70
34989;DHT22;21192;40.182;44.516;2023-07-20T10:02:33;31.10;50.50
34989;DHT22;21192;40.182;44.516;2023-07-20T10:05:02;31.10;50.30
34989;DHT22;21192;40.182;44.516;2023-07-20T10:07:30;31.20;50.40
34989;DHT22;21192;40.182;44.516;2023-07-20T10:09:59;31.20;50.30
34989;DHT22;21192;40.182;44.516;2023-07-20T10:12:27;31.20;50.40
34989;DHT22;21192;40.182;44.516;2023-07-20T10:15:24;31.20;50.50
34989;DHT22;21192;40.182;44.516;2023-07-20T10:18:22;31.20;50.30
34989;DHT22;21192;40.182;44.516;2023-07-20T10:20:51;31.20;50.10
34989;DHT22;21192;40.182;44.516;2023-07-20T10:23:19;31.30;50.10
34989;DHT22;21192;40.182;44.516;2023-07-20T10:25:46;31.40;50.00
34989;DHT22;21192;40.182;44.516;2023-07-20T10:28:13;31.40;49.90
34989;DHT22;21192;40.182;44.516;2023-07-20T10:30:40;31.50;50.40
34989;DHT22;21192;40.182;44.516;2023-07-20T10:33:07;31.50;50.30
34989;DHT22;21192;40.182;44.516;2023-07-20T10:35:53;31.40;50.10
34989;DHT22;21192;40.182;44.516;2023-07-20T10:38:19;31.40;50.00
34989;DHT22;21192;40.182;44.516;2023-07-20T10:40:55;31.50;50.10
34989;DHT22;21192;40.182;44.516;2023-07-20T10:43:21;31.40;50.00
34989;DHT22;21192;40.182;44.516;2023-07-20T10:45:50;31.50;50.10
34989;DHT22;21192;40.182;44.516;2023-07-20T10:48:24;31.50;50.10
34989;DHT22;21192;40.182;44.516;2023-07-20T10:51:14;31.60;49.70
34989;DHT22;21192;40.182;44.516;2023-07-20T10:53:40;31.60;49.70
34989;DHT22;21192;40.182;44.516;2023-07-20T10:56:12;31.60;49.60
34989;DHT22;21192;40.182;44.516;2023-07-20T10:58:39;31.70;49.80
34989;DHT22;21192;40.182;44.516;2023-07-20T11:01:05;31.70;49.80
34989;DHT22;21192;40.182;44.516;2023-07-20T11:03:37;31.70;49.90
34989;DHT22;21192;40.182;44.516;2023-07-20T11:09:10;31.90;50.30
34989;DHT22;21192;40.182;44.516;2023-07-20T11:11:56;31.90;50.60
34989;DHT22;21192;40.182;44.516;2023-07-20T11:14:28;32.00;49.70
34989;DHT22;21192;40.182;44.516;2023-07-20T11:17:14;32.10;49.60
34989;DHT22;21192;40.182;44.516;2023-07-20T11:19:41;32.10;49.40
34989;DHT22;21192;40.182;44.516;2023-07-20T11:22:07;32.20;49.30
34989;DHT22;21192;40.182;44.516;2023-07-20T11:24:37;32.20;49.20
34989;DHT22;21192;40.182;44.516;2023-07-20T11:27:03;32.20;49.20
34989;DHT22;21192;40.182;44.516;2023-07-20T11:29:29;32.30;49.10
34989;DHT22;21192;40.182;44.516;2023-07-20T11:31:56;32.30;49.00
34989;DHT22;21192;40.182;44.516;2023-07-20T11:34:24;32.40;49.00
34989;DHT22;21192;40.182;44.516;2023-07-20T11:36:51;32.40;48.90
34989;DHT22;21192;40.182;44.516;2023-07-20T11:39:19;32.40;48.70
34989;DHT22;21192;40.182;44.516;2023-07-20T11:41:52;32.50;48.70
34989;DHT22;21192;40.182;44.516;2023-07-20T11:44:19;32.50;48.40
34989;DHT22;21192;40.182;44.516;2023-07-20T11:46:46;32.50;48.20
34989;DHT22;21192;40.182;44.516;2023-07-20T11:49:12;32.60;48.20
34989;DHT22;21192;40.182;44.516;2023-07-20T11:51:39;32.60;48.30
34989;DHT22;21192;40.182;44.516;2023-07-20T11:54:07;32.60;48.20
34989;DHT22;21192;40.182;44.516;2023-07-20T11:56:33;32.60;47.80
34989;DHT22;21192;40.182;44.516;2023-07-20T11:58:59;32.60;47.90
34989;DHT22;21192;40.182;44.516;2023-07-20T12:01:27;32.50;48.00
34989;DHT22;21192;40.182;44.516;2023-07-20T12:04:03;32.60;48.10
34989;DHT22;21192;40.182;44.516;2023-07-20T12:06:30;32.60;47.80
34989;DHT22;21192;40.182;44.516;2023-07-20T12:08:59;32.60;47.60
34989;DHT22;21192;40.182;44.516;2023-07-20T12:11:38;32.60;47.80
34989;DHT22;21192;40.182;44.516;2023-07-20T12:14:07;32.70;47.90
34989;DHT22;21192;40.182;44.516;2023-07-20T12:16:36;32.70;47.80
34989;DHT22;21192;40.182;44.516;2023-07-20T12:19:05;32.70;47.60
34989;DHT22;21192;40.182;44.516;2023-07-20T12:21:33;32.70;47.60
34989;DHT22;21192;40.182;44.516;2023-07-20T12:23:59;32.80;47.60
34989;DHT22;21192;40.182;44.516;2023-07-20T12:26:26;32.80;47.40
34989;DHT22;21192;40.182;44.516;2023-07-20T12:28:52;32.90;47.20
34989;DHT22;21192;40.182;44.516;2023-07-20T12:31:18;32.90;47.00
34989;DHT22;21192;40.182;44.516;2023-07-20T12:33:44;32.90;46.80
34989;DHT22;21192;40.182;44.516;2023-07-20T12:36:10;32.90;46.60
34989;DHT22;21192;40.182;44.516;2023-07-20T12:38:36;32.90;46.30
34989;DHT22;21192;40.182;44.516;2023-07-20T12:41:02;32.90;46.20
34989;DHT22;21192;40.182;44.516;2023-07-20T12:43:29;32.90;46.20
34989;DHT22;21192;40.182;44.516;2023-07-20T12:45:56;32.90;46.10
34989;DHT22;21192;40.182;44.516;2023-07-20T12:48:22;32.90;46.20
34989;DHT22;21192;40.182;44.516;2023-07-20T12:50:48;32.90;46.30
34989;DHT22;21192;40.182;44.516;2023-07-20T12:53:14;32.90;46.30
34989;DHT22;21192;40.182;44.516;2023-07-20T12:55:40;32.90;46.30
34989;DHT22;21192;40.182;44.516;2023-07-20T12:58:07;33.00;46.40
34989;DHT22;21192;40.182;44.516;2023-07-20T13:00:33;33.00;46.10
34989;DHT22;21192;40.182;44.516;2023-07-20T13:02:59;33.00;45.70
34989;DHT22;21192;40.182;44.516;2023-07-20T13:05:25;33.10;45.50
34989;DHT22;21192;40.182;44.516;2023-07-20T13:07:51;33.00;45.20
34989;DHT22;21192;40.182;44.516;2023-07-20T13:10:18;33.10;45.10
34989;DHT22;21192;40.182;44.516;2023-07-20T13:12:44;33.00;44.90
34989;DHT22;21192;40.182;44.516;2023-07-20T13:15:10;33.10;44.80
34989;DHT22;21192;40.182;44.516;2023-07-20T13:17:37;33.10;44.40
34989;DHT22;21192;40.182;44.516;2023-07-20T13:20:08;33.10;44.10
34989;DHT22;21192;40.182;44.516;2023-07-20T13:22:40;33.10;44.00
34989;DHT22;21192;40.182;44.516;2023-07-20T13:25:07;33.10;44.30
34989;DHT22;21192;40.182;44.516;2023-07-20T13:27:34;33.10;44.30
34989;DHT22;21192;40.182;44.516;2023-07-20T13:30:00;33.10;44.40
34989;DHT22;21192;40.182;44.516;2023-07-20T13:32:27;33.20;44.80
34989;DHT22;21192;40.182;44.516;2023-07-20T13:34:53;33.20;45.40
34989;DHT22;21192;40.182;44.516;2023-07-20T13:37:19;33.20;45.70
34989;DHT22;21192;40.182;44.516;2023-07-20T13:39:45;33.10;45.80
34989;DHT22;21192;40.182;44.516;2023-07-20T13:42:11;33.20;45.60
34989;DHT22;21192;40.182;44.516;2023-07-20T13:44:38;33.20;45.20
34989;DHT22;21192;40.182;44.516;2023-07-20T13:47:04;33.20;45.20
34989;DHT22;21192;40.182;44.516;2023-07-20T13:49:33;33.20;45.20
34989;DHT22;21192;40.182;44.516;2023-07-20T13:51:59;33.10;45.40
34989;DHT22;21192;40.182;44.516;2023-07-20T13:54:25;33.10;45.80
34989;DHT22;21192;40.182;44.516;2023-07-20T13:56:51;33.10;46.00
34989;DHT22;21192;40.182;44.516;2023-07-20T13:59:20;33.10;46.10
34989;DHT22;21192;40.182;44.516;2023-07-20T14:01:46;33.10;46.70
34989;DHT22;21192;40.182;44.516;2023-07-20T14:04:12;33.10;45.80
34989;DHT22;21192;40.182;44.516;2023-07-20T14:06:38;33.10;45.80
34989;DHT22;21192;40.182;44.516;2023-07-20T14:09:04;33.10;45.90
34989;DHT22;21192;40.182;44.516;2023-07-20T14:11:30;33.00;46.10
34989;DHT22;21192;40.182;44.516;2023-07-20T14:13:55;33.00;46.50
34989;DHT22;21192;40.182;44.516;2023-07-20T14:16:24;33.00;46.50
34989;DHT22;21192;40.182;44.516;2023-07-20T14:18:50;32.90;46.20
34989;DHT22;21192;40.182;44.516;2023-07-20T14:21:17;32.90;46.10
34989;DHT22;21192;40.182;44.516;2023-07-20T14:23:48;32.90;46.10
34989;DHT22;21192;40.182;44.516;2023-07-20T14:26:14;32.90;46.10
34989;DHT22;21192;40.182;44.516;2023-07-20T14:28:40;32.90;46.10
34989;DHT22;21192;40.182;44.516;2023-07-20T14:31:07;32.90;46.10
34989;DHT22;21192;40.182;44.516;2023-07-20T14:33:33;32.80;46.10
34989;DHT22;21192;40.182;44.516;2023-07-20T14:35:59;32.80;46.40
34989;DHT22;21192;40.182;44.516;2023-07-20T14:38:27;32.70;46.50
34989;DHT22;21192;40.182;44.516;2023-07-20T14:40:54;32.70;46.40
34989;DHT22;21192;40.182;44.516;2023-07-20T14:43:20;32.70;46.40
34989;DHT22;21192;40.182;44.516;2023-07-20T14:45:46;32.70;46.40
34989;DHT22;21192;40.182;44.516;2023-07-20T14:48:12;32.70;46.40
34989;DHT22;21192;40.182;44.516;2023-07-20T14:50:38;32.70;46.50
34989;DHT22;21192;40.182;44.516;2023-07-20T14:53:03;32.70;46.60
34989;DHT22;21192;40.182;44.516;2023-07-20T14:55:29;32.70;46.80
34989;DHT22;21192;40.182;44.516;2023-07-20T14:57:55;32.70;46.90
34989;DHT22;21192;40.182;44.516;2023-07-20T15:00:21;32.60;47.00
34989;DHT22;21192;40.182;44.516;2023-07-20T15:02:47;32.60;47.10
34989;DHT22;21192;40.182;44.516;2023-07-20T15:05:20;32.60;47.10
34989;DHT22;21192;40.182;44.516;2023-07-20T15:07:46;32.60;47.20
34989;DHT22;21192;40.182;44.516;2023-07-20T15:10:12;32.50;47.20
34989;DHT22;21192;40.182;44.516;2023-07-20T15:12:39;32.50;47.30
34989;DHT22;21192;40.182;44.516;2023-07-20T15:15:07;32.50;47.30
34989;DHT22;21192;40.182;44.516;2023-07-20T15:17:33;32.50;47.40
34989;DHT22;21192;40.182;44.516;2023-07-20T15:20:02;32.40;47.40
34989;DHT22;21192;40.182;44.516;2023-07-20T15:22:30;32.40;47.50
34989;DHT22;21192;40.182;44.516;2023-07-20T15:24:57;32.30;49.00
34989;DHT22;21192;40.182;44.516;2023-07-20T15:27:22;32.20;50.90
34989;DHT22;21192;40.182;44.516;2023-07-20T15:29:49;32.20;52.20